Time;durP1;ratioP1;P1;durP2;ratioP2;P2;SDS_P1;SDS_P2;PMS_P1;PMS_P2;Temp;Humidity;BMP_temperature;BMP_pressure;BME280_temperature;BME280_humidity;BME280_pressure;Samples;Min_cycle;Max_cycle;Signal;HPM_P1;HPM_P2
2022/01/05 00:00:34;;;;;;;;;5.75;1.75;;;;;6.99;100.00;100476.16;5035778;28;45348;-79
2022/01/05 00:03:00;;;;;;;;;4.00;2.75;;;;;6.97;100.00;100483.78;5035776;28;45586;-78
2022/01/05 00:05:26;;;;;;;;;2.00;2.00;;;;;6.93;100.00;100495.59;5036087;28;45382;-79
2022/01/05 00:07:51;;;;;;;;;2.00;2.00;;;;;6.89;100.00;100487.63;5035993;28;45410;-79
2022/01/05 00:10:17;;;;;;;;;3.75;2.75;;;;;6.82;100.00;100489.88;5035544;28;45521;-78
2022/01/05 00:12:42;;;;;;;;;2.00;2.00;;;;;6.76;100.00;100493.81;5034941;28;45435;-77
2022/01/05 00:15:09;;;;;;;;;2.00;2.00;;;;;6.74;100.00;100491.16;5036351;28;45597;-77
2022/01/05 00:17:34;;;;;;;;;3.00;1.75;;;;;6.74;100.00;100498.88;5035243;28;45479;-79
2022/01/05 00:20:01;;;;;;;;;4.00;1.00;;;;;6.70;100.00;100494.34;5035991;28;45425;-79
2022/01/05 00:22:27;;;;;;;;;2.00;2.00;;;;;6.69;100.00;100495.16;5036275;28;45414;-78
2022/01/05 00:24:52;;;;;;;;;1.00;1.00;;;;;6.69;100.00;100491.69;5036100;28;45220;-76
2022/01/05 00:27:18;;;;;;;;;1.50;1.50;;;;;6.70;100.00;100508.88;5035323;28;45269;-77
2022/01/05 00:29:43;;;;;;;;;3.50;1.75;;;;;6.64;100.00;100500.03;5035695;28;45571;-77
2022/01/05 00:32:09;;;;;;;;;3.25;2.00;;;;;6.61;100.00;100504.13;5035384;28;45274;-78
2022/01/05 00:34:36;;;;;;;;;1.00;1.00;;;;;6.57;100.00;100504.75;5035192;28;45664;-77
2022/01/05 00:37:02;;;;;;;;;1.00;1.00;;;;;6.52;100.00;100491.63;5035517;28;45506;-78
2022/01/05 00:39:28;;;;;;;;;6.25;2.00;;;;;6.53;100.00;100508.84;5017603;28;45762;-77
2022/01/05 00:41:54;;;;;;;;;1.75;1.75;;;;;6.49;100.00;100507.78;5037275;28;45418;-76
2022/01/05 00:44:19;;;;;;;;;2.50;2.00;;;;;6.48;100.00;100510.25;5038505;28;45439;-77
2022/01/05 00:46:45;;;;;;;;;6.00;3.00;;;;;6.44;100.00;100514.34;5018985;28;45550;-76
2022/01/05 00:49:12;;;;;;;;;3.75;2.25;;;;;6.46;100.00;100512.75;5029595;28;45316;-79
2022/01/05 00:51:38;;;;;;;;;1.00;1.00;;;;;6.47;100.00;100514.53;5038887;28;45296;-78
2022/01/05 00:54:04;;;;;;;;;6.25;2.25;;;;;6.48;100.00;100521.44;5039270;28;45207;-78
2022/01/05 00:56:30;;;;;;;;;1.00;1.00;;;;;6.49;100.00;100520.66;5020461;28;45520;-78
2022/01/05 00:58:56;;;;;;;;;6.50;4.00;;;;;6.47;100.00;100519.66;5038562;28;45314;-79
2022/01/05 01:01:22;;;;;;;;;2.00;2.00;;;;;6.47;100.00;100529.97;5038511;28;45405;-79
2022/01/05 01:03:47;;;;;;;;;3.00;2.75;;;;;6.49;100.00;100530.03;5038895;28;45478;-78
2022/01/05 01:06:13;;;;;;;;;3.50;3.00;;;;;6.50;100.00;100531.81;5037768;28;46184;-79
2022/01/05 01:08:39;;;;;;;;;6.75;2.75;;;;;6.56;100.00;100536.41;5038574;28;45371;-79
2022/01/05 01:11:05;;;;;;;;;2.00;1.75;;;;;6.57;100.00;100525.31;5038381;28;45331;-79
2022/01/05 01:13:30;;;;;;;;;3.25;2.00;;;;;6.61;100.00;100537.56;5038582;28;45410;-78
2022/01/05 01:15:56;;;;;;;;;3.00;2.50;;;;;6.62;100.00;100539.34;5020387;28;45853;-78
2022/01/05 01:18:21;;;;;;;;;1.50;1.50;;;;;6.63;100.00;100543.69;5037723;28;45494;-78
2022/01/05 01:20:48;;;;;;;;;4.25;2.25;;;;;6.62;100.00;100550.50;5038020;28;45362;-79
2022/01/05 01:23:14;;;;;;;;;2.00;2.00;;;;;6.60;100.00;100562.38;5020112;28;45495;-78
2022/01/05 01:25:40;;;;;;;;;1.00;1.00;;;;;6.58;100.00;100560.53;5018909;28;45367;-78
2022/01/05 01:28:06;;;;;;;;;1.50;1.50;;;;;6.59;100.00;100570.03;5038272;28;45951;-79
2022/01/05 01:30:34;;;;;;;;;3.50;2.00;;;;;6.61;100.00;100582.19;5037978;28;45338;-78
2022/01/05 01:32:59;;;;;;;;;2.25;1.75;;;;;6.57;100.00;100585.38;5038406;28;45484;-79
2022/01/05 01:35:26;;;;;;;;;2.00;2.00;;;;;6.56;100.00;100581.03;5037357;28;46331;-79
2022/01/05 01:37:53;;;;;;;;;1.00;1.00;;;;;6.53;100.00;100579.97;5038360;28;45364;-78
2022/01/05 01:40:19;;;;;;;;;2.25;1.00;;;;;6.50;100.00;100584.16;5037748;28;45398;-79
2022/01/05 01:42:45;;;;;;;;;2.50;1.00;;;;;6.50;100.00;100594.44;5037967;28;45285;-79
2022/01/05 01:45:11;;;;;;;;;3.75;1.00;;;;;6.48;100.00;100598.59;5037607;28;45949;-78
2022/01/05 01:47:36;;;;;;;;;2.25;1.25;;;;;6.43;100.00;100597.44;5037834;28;45458;-78
2022/01/05 01:50:02;;;;;;;;;1.25;1.25;;;;;6.41;100.00;100595.56;5037516;28;45396;-79
2022/01/05 01:52:28;;;;;;;;;3.25;1.00;;;;;6.39;100.00;100599.75;5037607;28;45295;-78
2022/01/05 01:54:54;;;;;;;;;1.50;1.00;;;;;6.37;100.00;100606.50;5038024;28;45374;-80
2022/01/05 01:57:21;;;;;;;;;1.50;1.50;;;;;6.39;100.00;100610.03;5037882;28;45335;-78
2022/01/05 01:59:47;;;;;;;;;1.00;1.00;;;;;6.40;100.00;100617.84;5038465;28;45402;-78
2022/01/05 02:02:16;;;;;;;;;4.50;2.50;;;;;6.41;100.00;100621.28;5038135;28;45697;-78
2022/01/05 02:04:43;;;;;;;;;2.25;2.00;;;;;6.39;100.00;100628.94;5037638;28;46034;-79
2022/01/05 02:07:09;;;;;;;;;1.75;1.00;;;;;6.34;100.00;100640.63;5037664;28;45326;-78
2022/01/05 02:09:36;;;;;;;;;2.25;2.00;;;;;6.29;100.00;100642.03;5037685;28;45579;-79
2022/01/05 02:12:05;;;;;;;;;2.00;2.00;;;;;6.26;100.00;100642.75;5037403;28;45360;-78
2022/01/05 02:14:30;;;;;;;;;0.50;0.50;;;;;6.20;100.00;100642.38;5037328;28;45473;-78
2022/01/05 02:16:58;;;;;;;;;2.00;1.00;;;;;6.16;100.00;100648.13;5037118;28;45201;-79
2022/01/05 02:19:23;;;;;;;;;3.25;1.25;;;;;6.16;100.00;100649.03;5037741;28;45382;-79
2022/01/05 02:21:49;;;;;;;;;2.00;2.00;;;;;6.16;100.00;100659.31;5037214;28;45439;-79
2022/01/05 02:24:15;;;;;;;;;2.50;1.75;;;;;6.14;100.00;100654.88;5036732;28;45350;-79
2022/01/05 02:26:42;;;;;;;;;1.75;1.00;;;;;6.13;100.00;100658.22;5037244;28;45269;-78
2022/01/05 02:29:08;;;;;;;;;2.25;1.25;;;;;6.05;100.00;100655.19;5019046;28;45543;-79
2022/01/05 02:31:34;;;;;;;;;2.00;1.75;;;;;6.01;100.00;100653.22;5036693;28;45592;-79
2022/01/05 02:34:00;;;;;;;;;3.00;3.00;;;;;5.98;100.00;100655.59;5037423;28;45387;-79
2022/01/05 02:36:26;;;;;;;;;2.25;1.75;;;;;5.95;100.00;100651.13;5036722;28;45304;-78
2022/01/05 02:38:53;;;;;;;;;6.00;2.00;;;;;5.90;100.00;100660.25;5037141;28;45329;-77
2022/01/05 02:41:19;;;;;;;;;0.00;0.00;;;;;5.89;100.00;100649.06;5037653;28;45310;-78
2022/01/05 02:43:46;;;;;;;;;2.50;1.50;;;;;5.91;100.00;100649.19;5036812;28;45544;-78
2022/01/05 02:46:17;;;;;;;;;5.50;1.00;;;;;5.96;100.00;100657.19;5036540;28;46002;-76
2022/01/05 02:48:43;;;;;;;;;1.00;1.00;;;;;5.95;100.00;100661.41;5037435;28;45456;-77
2022/01/05 02:51:10;;;;;;;;;2.75;2.00;;;;;5.95;100.00;100655.41;5037343;28;45347;-78
2022/01/05 02:53:35;;;;;;;;;2.75;2.75;;;;;5.96;100.00;100659.75;5036972;28;45520;-76
2022/01/05 02:56:01;;;;;;;;;2.50;2.00;;;;;5.96;100.00;100663.19;5036828;28;45588;-76
2022/01/05 02:58:27;;;;;;;;;2.00;2.00;;;;;5.97;100.00;100670.09;5037411;28;45350;-76
2022/01/05 03:00:53;;;;;;;;;1.00;1.00;;;;;5.98;100.00;100669.31;5018905;28;45270;-76
2022/01/05 03:03:18;;;;;;;;;3.25;3.00;;;;;5.99;100.00;100675.38;5036946;28;45340;-77
2022/01/05 03:05:44;;;;;;;;;2.00;1.00;;;;;6.02;100.00;100678.13;5034932;28;45522;-76
2022/01/05 03:08:10;;;;;;;;;1.25;1.25;;;;;6.01;100.00;100678.91;5037062;28;45193;-77
2022/01/05 03:10:36;;;;;;;;;6.00;1.00;;;;;6.01;100.00;100681.50;5037039;28;45208;-76
2022/01/05 03:13:01;;;;;;;;;6.00;0.75;;;;;6.02;100.00;100685.84;5036416;28;45477;-76
2022/01/05 03:15:28;;;;;;;;;2.75;1.00;;;;;6.02;100.00;100685.84;5036247;28;45477;-77
2022/01/05 03:17:53;;;;;;;;;3.75;1.00;;;;;6.00;100.00;100685.75;5036259;28;45332;-78
2022/01/05 03:20:20;;;;;;;;;2.00;0.75;;;;;6.02;100.00;100694.47;5036385;28;45520;-77
2022/01/05 03:22:47;;;;;;;;;2.50;2.50;;;;;6.03;100.00;100693.66;5036132;28;46366;-78
2022/01/05 03:25:16;;;;;;;;;1.00;1.00;;;;;6.03;100.00;100695.31;5036181;28;45901;-78
2022/01/05 03:27:44;;;;;;;;;1.00;1.00;;;;;5.98;100.00;100692.44;5036360;28;45333;-78
2022/01/05 03:30:12;;;;;;;;;2.00;2.00;;;;;5.96;100.00;100699.16;5036282;28;45923;-77
2022/01/05 03:32:48;;;;;;;;;2.75;1.00;;;;;5.92;100.00;100704.94;5036088;28;46137;-78
2022/01/05 03:35:14;;;;;;;;;3.50;1.25;;;;;5.86;100.00;100714.81;5035878;28;45817;-78
2022/01/05 03:37:39;;;;;;;;;2.25;2.00;;;;;5.87;100.00;100714.94;5036691;28;45323;-78
2022/01/05 03:40:05;;;;;;;;;2.00;1.00;;;;;5.91;100.00;100730.50;5018819;28;45569;-78
2022/01/05 03:42:31;;;;;;;;;4.00;1.75;;;;;5.93;100.00;100728.94;5036486;28;45394;-78
2022/01/05 03:44:56;;;;;;;;;3.25;2.00;;;;;5.92;100.00;100722.00;5036027;28;45382;-77
2022/01/05 03:47:22;;;;;;;;;4.00;2.00;;;;;5.93;100.00;100728.94;5036587;28;45272;-78
2022/01/05 03:49:48;;;;;;;;;1.00;1.00;;;;;5.93;100.00;100734.97;5036397;28;45363;-78
2022/01/05 03:52:13;;;;;;;;;4.00;1.50;;;;;5.91;100.00;100740.78;5035991;28;45348;-78
2022/01/05 03:54:39;;;;;;;;;2.50;1.00;;;;;5.85;100.00;100746.44;5035756;28;45392;-78
2022/01/05 03:57:04;;;;;;;;;3.50;3.50;;;;;5.81;100.00;100749.63;5035993;28;45342;-77
2022/01/05 03:59:30;;;;;;;;;3.00;1.50;;;;;5.79;100.00;100757.22;5036711;28;45461;-76
2022/01/05 04:01:56;;;;;;;;;4.50;1.75;;;;;5.79;100.00;100758.91;5036010;28;45431;-77
2022/01/05 04:04:22;;;;;;;;;2.25;0.00;;;;;5.76;100.00;100751.00;5035890;28;45490;-79
2022/01/05 04:06:47;;;;;;;;;1.00;1.00;;;;;5.76;100.00;100753.56;5035867;28;45242;-78
2022/01/05 04:09:13;;;;;;;;;1.00;1.00;;;;;5.73;100.00;100755.16;5036296;28;45499;-78
2022/01/05 04:11:39;;;;;;;;;2.50;1.00;;;;;5.71;100.00;100748.13;5035058;28;46068;-78
2022/01/05 04:14:05;;;;;;;;;0.50;0.50;;;;;5.74;100.00;100754.34;5035652;28;45784;-77
2022/01/05 04:16:30;;;;;;;;;4.25;2.00;;;;;5.73;100.00;100756.84;5037317;28;45364;-77
2022/01/05 04:18:56;;;;;;;;;1.00;1.00;;;;;5.69;100.00;100758.31;5039543;28;45204;-78
2022/01/05 04:21:21;;;;;;;;;1.25;1.25;;;;;5.73;100.00;100760.28;5021192;28;46721;-78
2022/01/05 04:23:47;;;;;;;;;3.75;1.75;;;;;5.70;100.00;100761.78;5039039;28;45437;-78
2022/01/05 04:26:13;;;;;;;;;4.00;1.75;;;;;5.69;100.00;100770.25;5038956;28;45387;-78
2022/01/05 04:28:40;;;;;;;;;2.75;1.00;;;;;5.65;100.00;100765.75;5038669;28;45580;-77
2022/01/05 04:31:06;;;;;;;;;2.25;1.50;;;;;5.63;100.00;100768.19;5038810;28;45383;-78
2022/01/05 04:33:31;;;;;;;;;5.50;2.25;;;;;5.63;100.00;100772.47;5039213;28;45264;-78
2022/01/05 04:35:57;;;;;;;;;3.50;0.50;;;;;5.66;100.00;100770.09;5038891;28;45419;-77
2022/01/05 04:38:23;;;;;;;;;4.00;1.75;;;;;5.67;100.00;100774.44;5039434;28;45636;-77
2022/01/05 04:40:48;;;;;;;;;1.75;1.00;;;;;5.69;100.00;100773.75;5039116;28;45874;-76
2022/01/05 04:43:14;;;;;;;;;1.75;1.75;;;;;5.67;100.00;100775.31;5039179;28;45398;-77
2022/01/05 04:45:40;;;;;;;;;2.00;2.00;;;;;5.65;100.00;100786.28;5038605;28;45277;-76
2022/01/05 04:48:05;;;;;;;;;3.00;1.75;;;;;5.65;100.00;100791.44;5038899;28;45391;-77
2022/01/05 04:50:31;;;;;;;;;5.00;1.00;;;;;5.65;100.00;100799.13;5038805;28;45535;-76
2022/01/05 04:52:57;;;;;;;;;1.25;1.00;;;;;5.67;100.00;100789.84;5038923;28;45408;-78
2022/01/05 04:55:22;;;;;;;;;1.50;1.50;;;;;5.69;100.00;100795.94;5038981;28;45406;-76
2022/01/05 04:57:48;;;;;;;;;2.00;0.75;;;;;5.72;100.00;100789.31;5039255;28;45366;-77
2022/01/05 05:00:14;;;;;;;;;2.50;1.00;;;;;5.78;100.00;100800.81;5038376;28;46050;-76
2022/01/05 05:02:39;;;;;;;;;3.00;2.50;;;;;5.79;100.00;100803.44;5038112;28;45290;-76
2022/01/05 05:05:05;;;;;;;;;2.00;1.25;;;;;5.77;100.00;100812.78;5038148;28;45486;-77
2022/01/05 05:07:31;;;;;;;;;1.00;1.00;;;;;5.77;100.00;100804.16;5021314;28;45546;-76
2022/01/05 05:09:56;;;;;;;;;2.50;1.00;;;;;5.79;100.00;100807.72;5038166;28;45352;-76
2022/01/05 05:12:22;;;;;;;;;2.25;0.75;;;;;5.84;100.00;100816.59;5038487;28;45379;-77
2022/01/05 05:14:47;;;;;;;;;6.50;3.00;;;;;5.87;100.00;100822.84;5038400;28;45456;-77
2022/01/05 05:17:13;;;;;;;;;1.75;1.75;;;;;5.91;100.00;100820.44;5038859;28;45447;-78
2022/01/05 05:19:39;;;;;;;;;1.50;1.00;;;;;5.91;100.00;100823.00;5038035;28;45286;-78
2022/01/05 05:22:04;;;;;;;;;1.00;1.00;;;;;5.85;100.00;100827.00;5038641;28;45762;-77
2022/01/05 05:24:30;;;;;;;;;2.00;1.00;;;;;5.85;100.00;100833.78;5038397;28;45398;-78
2022/01/05 05:26:56;;;;;;;;;1.00;0.00;;;;;5.83;100.00;100840.53;5020119;28;45556;-78
2022/01/05 05:29:21;;;;;;;;;2.00;2.00;;;;;5.77;100.00;100835.88;5037504;28;45506;-76
2022/01/05 05:31:47;;;;;;;;;1.50;1.00;;;;;5.77;100.00;100842.69;5037788;28;45545;-76
2022/01/05 05:34:13;;;;;;;;;1.75;1.75;;;;;5.77;100.00;100842.69;5038342;28;45428;-78
2022/01/05 05:36:38;;;;;;;;;3.00;2.00;;;;;5.78;100.00;100853.06;5037812;28;45484;-80
2022/01/05 05:39:04;;;;;;;;;2.00;1.00;;;;;5.75;100.00;100855.44;5037898;28;45997;-79
2022/01/05 05:41:30;;;;;;;;;1.50;1.00;;;;;5.78;100.00;100859.88;5038553;28;45386;-80
2022/01/05 05:43:56;;;;;;;;;2.00;2.00;;;;;5.76;100.00;100854.66;5038295;28;45362;-80
2022/01/05 05:46:21;;;;;;;;;4.50;1.75;;;;;5.79;100.00;100859.97;5037860;28;45357;-79
2022/01/05 05:48:47;;;;;;;;;1.75;1.75;;;;;5.79;100.00;100865.13;5037451;28;45523;-79
2022/01/05 05:51:13;;;;;;;;;3.00;1.00;;;;;5.80;100.00;100866.03;5037911;28;45236;-79
2022/01/05 05:53:38;;;;;;;;;5.50;2.00;;;;;5.80;100.00;100866.91;5038055;28;45380;-80
2022/01/05 05:56:05;;;;;;;;;3.00;1.00;;;;;5.80;100.00;100859.19;5037787;28;45312;-79
2022/01/05 05:58:30;;;;;;;;;3.00;2.00;;;;;5.80;100.00;100855.75;5037888;28;46135;-79
2022/01/05 06:00:56;;;;;;;;;6.25;3.00;;;;;5.77;100.00;100858.09;5037375;28;45510;-79
2022/01/05 06:03:21;;;;;;;;;2.25;1.00;;;;;5.73;100.00;100862.16;5038002;28;45215;-80
2022/01/05 06:05:47;;;;;;;;;3.00;3.00;;;;;5.69;100.00;100866.22;5037526;28;45623;-79
2022/01/05 06:08:12;;;;;;;;;3.00;2.25;;;;;5.67;100.00;100880.63;5036871;28;45394;-80
2022/01/05 06:10:38;;;;;;;;;1.00;1.00;;;;;5.67;100.00;100879.75;5040591;28;45458;-79
2022/01/05 06:13:04;;;;;;;;;2.00;1.25;;;;;5.66;100.00;100883.97;5038133;28;45442;-79
2022/01/05 06:15:32;;;;;;;;;1.25;1.25;;;;;5.63;100.00;100896.63;5037556;28;45465;-78
2022/01/05 06:17:58;;;;;;;;;3.00;1.75;;;;;5.61;100.00;100898.22;5037162;28;45994;-78
2022/01/05 06:20:23;;;;;;;;;2.50;1.00;;;;;5.60;100.00;100909.28;5037406;28;45314;-78
2022/01/05 06:22:49;;;;;;;;;1.50;1.50;;;;;5.56;100.00;100903.03;5019118;28;45242;-78
2022/01/05 06:25:15;;;;;;;;;2.00;2.00;;;;;5.55;100.00;100900.38;5037510;28;45315;-78
2022/01/05 06:27:40;;;;;;;;;4.25;1.50;;;;;5.55;100.00;100895.22;5037528;28;45239;-77
2022/01/05 06:30:08;;;;;;;;;4.00;2.00;;;;;5.58;100.00;100895.44;5040808;28;45252;-79
2022/01/05 06:32:34;;;;;;;;;5.25;1.00;;;;;5.60;100.00;100901.56;5044351;28;45314;-79
2022/01/05 06:35:03;;;;;;;;;2.00;1.25;;;;;5.58;100.00;100914.28;5037189;28;45511;-79
2022/01/05 06:37:29;;;;;;;;;5.00;2.00;;;;;5.51;100.00;100912.13;5037035;28;45791;-79
2022/01/05 06:39:55;;;;;;;;;2.00;1.50;;;;;5.46;100.00;100913.47;5036582;28;45794;-80
2022/01/05 06:42:21;;;;;;;;;1.75;1.75;;;;;5.42;100.00;100914.06;5030745;28;45478;-79
2022/01/05 06:44:46;;;;;;;;;2.25;2.25;;;;;5.38;100.00;100909.50;5025068;28;45472;-79
2022/01/05 06:47:12;;;;;;;;;3.50;3.50;;;;;5.40;100.00;100920.78;5025583;28;45968;-79
2022/01/05 06:49:38;;;;;;;;;3.00;2.25;;;;;5.36;100.00;100921.34;5027361;28;45437;-78
2022/01/05 06:52:04;;;;;;;;;2.00;2.00;;;;;5.36;100.00;100929.03;5025933;28;45332;-78
2022/01/05 06:54:30;;;;;;;;;2.00;2.00;;;;;5.35;100.00;100927.25;5024198;28;45699;-79
2022/01/05 06:56:56;;;;;;;;;4.50;2.50;;;;;5.30;100.00;100926.06;5025223;28;45461;-78
2022/01/05 06:59:21;;;;;;;;;1.50;1.50;;;;;5.26;100.00;100927.56;5025880;28;45473;-78
2022/01/05 07:01:47;;;;;;;;;2.00;2.00;;;;;5.21;100.00;100937.50;5036474;28;45283;-79
2022/01/05 07:04:13;;;;;;;;;2.00;2.00;;;;;5.20;100.00;100933.16;5037282;28;45316;-77
2022/01/05 07:06:38;;;;;;;;;2.50;2.00;;;;;5.18;100.00;100937.28;5019049;28;47962;-78
2022/01/05 07:09:05;;;;;;;;;1.00;1.00;;;;;5.13;100.00;100930.94;5035442;28;45529;-77
2022/01/05 07:11:32;;;;;;;;;3.00;2.00;;;;;5.11;100.00;100935.97;5029698;28;45492;-82
2022/01/05 07:13:58;;;;;;;;;1.25;1.25;;;;;5.08;100.00;100937.44;5036427;28;45362;-79
2022/01/05 07:16:24;;;;;;;;;4.25;3.00;;;;;5.10;100.00;100941.00;5033316;28;45510;-80
2022/01/05 07:18:50;;;;;;;;;1.00;1.00;;;;;5.09;100.00;100942.66;5038079;28;45517;-83
2022/01/05 07:21:16;;;;;;;;;4.25;1.00;;;;;5.09;100.00;100955.50;5042131;28;45404;-80
2022/01/05 07:23:41;;;;;;;;;2.00;0.00;;;;;5.05;100.00;100958.66;5041048;28;45964;-81
2022/01/05 07:26:07;;;;;;;;;0.75;0.75;;;;;5.05;100.00;100965.44;5042000;28;46425;-80
2022/01/05 07:28:33;;;;;;;;;1.00;1.00;;;;;5.00;100.00;100959.13;5040001;28;45444;-84
2022/01/05 07:30:58;;;;;;;;;2.75;1.50;;;;;5.01;100.00;100973.75;5041768;28;45225;-77
2022/01/05 07:33:24;;;;;;;;;6.00;3.00;;;;;5.00;100.00;100967.69;5039470;28;45506;-79
2022/01/05 07:35:50;;;;;;;;;2.00;1.00;;;;;4.99;100.00;100976.19;5035025;28;46173;-80
2022/01/05 07:38:16;;;;;;;;;0.50;0.25;;;;;5.07;100.00;100981.84;5035669;28;45648;-76
2022/01/05 07:40:42;;;;;;;;;2.00;2.00;;;;;5.06;100.00;100987.75;5036486;28;45363;-81
2022/01/05 07:43:07;;;;;;;;;2.75;2.00;;;;;5.14;100.00;100988.31;5036521;28;45597;-79
2022/01/05 07:45:35;;;;;;;;;1.25;1.00;;;;;5.18;100.00;100982.63;5035585;28;46654;-77
2022/01/05 07:48:02;;;;;;;;;3.50;2.00;;;;;5.22;100.00;100988.06;5035656;28;45859;-80
2022/01/05 07:50:28;;;;;;;;;3.00;3.00;;;;;5.29;100.00;100994.50;5036273;28;45384;-81
2022/01/05 07:52:54;;;;;;;;;2.00;2.00;;;;;5.30;100.00;100985.13;5040140;28;45430;-79
2022/01/05 07:55:19;;;;;;;;;1.25;1.25;;;;;5.31;100.00;100997.19;5042110;28;45913;-80
2022/01/05 07:57:45;;;;;;;;;2.00;2.00;;;;;5.25;100.00;100995.06;5039517;28;45252;-75
2022/01/05 08:00:11;;;;;;;;;1.50;1.50;;;;;5.17;100.00;100999.66;5039163;28;45400;-76
2022/01/05 08:02:37;;;;;;;;;1.00;1.00;;;;;5.13;100.00;100999.34;5039013;28;45565;-76
2022/01/05 08:05:03;;;;;;;;;6.75;1.00;;;;;5.12;100.00;101011.31;5038742;28;46161;-76
2022/01/05 08:07:29;;;;;;;;;5.00;2.00;;;;;5.08;100.00;101010.16;5044381;28;45859;-76
2022/01/05 08:09:54;;;;;;;;;5.50;2.75;;;;;5.09;100.00;101013.66;5039485;28;45339;-77
2022/01/05 08:12:20;;;;;;;;;1.25;1.25;;;;;5.07;100.00;101022.91;5035131;28;45507;-75
2022/01/05 08:14:45;;;;;;;;;2.25;1.75;;;;;5.03;100.00;101020.91;5038121;28;45818;-77
2022/01/05 08:17:11;;;;;;;;;1.50;1.50;;;;;5.01;100.00;101030.19;5038282;28;45466;-78
2022/01/05 08:19:37;;;;;;;;;1.75;1.75;;;;;4.98;100.00;101032.53;5029061;28;45271;-76
2022/01/05 08:22:02;;;;;;;;;1.75;1.75;;;;;4.94;100.00;101042.56;5058141;28;45520;-79
2022/01/05 08:24:28;;;;;;;;;4.50;2.50;;;;;4.94;100.00;101036.56;5041573;28;45438;-77
2022/01/05 08:26:54;;;;;;;;;2.00;1.75;;;;;4.93;100.00;101043.34;5031207;28;45331;-78
2022/01/05 08:29:19;;;;;;;;;4.75;2.75;;;;;4.92;100.00;101048.38;5038529;28;45370;-78
2022/01/05 08:31:45;;;;;;;;;1.50;1.50;;;;;4.91;100.00;101041.47;5039488;28;45908;-75
2022/01/05 08:34:11;;;;;;;;;2.50;2.50;;;;;4.91;100.00;101054.28;5039223;28;45923;-76
2022/01/05 08:36:37;;;;;;;;;6.00;6.00;;;;;4.91;100.00;101054.28;5038744;28;45738;-76
2022/01/05 08:39:03;;;;;;;;;2.50;1.75;;;;;4.93;100.00;101051.03;5020929;28;45422;-78
2022/01/05 08:41:29;;;;;;;;;1.00;1.00;;;;;4.95;100.00;101054.63;5039136;28;45410;-77
2022/01/05 08:43:54;;;;;;;;;5.25;2.00;;;;;4.98;100.00;101058.19;5038706;28;45325;-78
2022/01/05 08:46:21;;;;;;;;;5.25;2.25;;;;;4.95;100.00;101054.63;5038312;28;45410;-79
2022/01/05 08:48:47;;;;;;;;;3.75;3.00;;;;;4.96;100.00;101058.09;5019224;28;45578;-81
2022/01/05 08:51:12;;;;;;;;;3.75;2.25;;;;;4.94;100.00;101057.97;5039058;28;45587;-79
2022/01/05 08:53:38;;;;;;;;;2.00;2.00;;;;;4.97;100.00;101062.41;5038173;28;46117;-78
2022/01/05 08:56:04;;;;;;;;;4.50;2.00;;;;;4.95;100.00;101058.88;5038363;28;45312;-77
2022/01/05 08:58:30;;;;;;;;;1.25;1.25;;;;;4.99;100.00;101059.97;5038326;28;45248;-78
2022/01/05 09:00:55;;;;;;;;;7.25;3.00;;;;;4.99;100.00;101065.97;5038624;28;45256;-80
2022/01/05 09:03:21;;;;;;;;;7.00;2.25;;;;;4.99;100.00;101080.50;5037897;28;46077;-77
2022/01/05 09:05:47;;;;;;;;;3.00;2.50;;;;;4.94;100.00;101077.59;5038933;28;45308;-77
2022/01/05 09:08:13;;;;;;;;;5.00;3.00;;;;;4.98;100.00;101074.47;5020643;28;45412;-77
2022/01/05 09:10:39;;;;;;;;;7.75;2.00;;;;;4.96;100.00;101076.94;5038847;28;45450;-77
2022/01/05 09:13:06;;;;;;;;;5.50;2.00;;;;;4.98;100.00;101083.84;5038380;28;46193;-77
2022/01/05 09:15:34;;;;;;;;;2.25;1.00;;;;;4.99;100.00;101081.38;5038565;28;45401;-78
2022/01/05 09:18:00;;;;;;;;;2.00;2.00;;;;;5.00;100.00;101085.72;5038600;28;45361;-78
2022/01/05 09:20:26;;;;;;;;;2.75;1.25;;;;;5.03;100.00;101097.88;5038741;28;45231;-77
2022/01/05 09:22:51;;;;;;;;;2.25;2.00;;;;;5.03;100.00;101087.63;5038332;28;45600;-79
2022/01/05 09:25:18;;;;;;;;;3.00;2.00;;;;;5.06;100.00;101090.41;5038601;28;45284;-78
2022/01/05 09:27:45;;;;;;;;;2.00;2.00;;;;;5.08;100.00;101084.59;5038879;28;45461;-77
2022/01/05 09:30:16;;;;;;;;;2.00;2.00;;;;;5.11;100.00;101097.66;5038306;28;45558;-79
2022/01/05 09:32:43;;;;;;;;;2.75;2.25;;;;;5.14;100.00;101096.97;5038034;28;45415;-78
2022/01/05 09:35:12;;;;;;;;;6.00;3.00;;;;;5.22;100.00;101105.22;5038013;28;45846;-78
2022/01/05 09:37:52;;;;;;;;;4.75;3.75;;;;;5.27;100.00;101102.22;5038235;28;45337;-78
2022/01/05 09:43:06;;;;;;;;;4.50;3.00;;;;;5.42;100.00;101124.63;5038056;28;45371;-79
2022/01/05 09:45:34;;;;;;;;;7.00;3.00;;;;;5.50;100.00;101127.75;5040799;28;45394;-78
2022/01/05 09:48:41;;;;;;;;;6.25;3.50;;;;;5.54;100.00;101125.50;5038773;28;45346;-83
2022/01/05 09:51:12;;;;;;;;;5.75;4.25;;;;;5.56;100.00;101129.03;5037693;28;45624;-78
2022/01/05 09:53:38;;;;;;;;;10.75;7.25;;;;;5.60;100.00;101136.97;5037726;28;45351;-78
2022/01/05 09:56:05;;;;;;;;;6.50;6.50;;;;;5.63;100.00;101132.94;5037853;28;45369;-77
2022/01/05 09:58:32;;;;;;;;;6.00;3.50;;;;;5.65;100.00;101140.75;5037822;28;45287;-77
2022/01/05 10:00:59;;;;;;;;;3.00;2.50;;;;;5.67;100.00;101154.59;5037757;28;45627;-76
2022/01/05 10:03:24;;;;;;;;;2.75;2.75;;;;;5.68;100.00;101162.41;5043769;28;45465;-76
2022/01/05 10:05:50;;;;;;;;;6.25;3.00;;;;;5.74;100.00;101149.97;5052589;28;45390;-77
2022/01/05 10:08:16;;;;;;;;;2.00;2.00;;;;;5.81;100.00;101148.72;5056032;28;45275;-77
2022/01/05 10:10:42;;;;;;;;;5.50;1.75;;;;;5.89;100.00;101155.28;5055811;28;45743;-79
2022/01/05 10:13:08;;;;;;;;;5.75;3.25;;;;;5.94;100.00;101157.28;5053266;28;45279;-79
2022/01/05 10:15:35;;;;;;;;;6.00;4.75;;;;;5.97;100.00;101154.94;5054274;28;45158;-79
2022/01/05 10:18:12;;;;;;;;;3.50;2.75;;;;;6.02;100.00;101163.88;5054867;28;45272;-78
2022/01/05 10:20:57;;;;;;;;;5.00;1.25;;;;;6.01;100.00;101154.38;5053393;28;44922;-78
2022/01/05 10:23:33;;;;;;;;;5.50;2.00;;;;;5.98;100.00;101167.00;5053296;28;45445;-77
2022/01/05 10:26:17;;;;;;;;;2.00;2.00;;;;;5.98;100.00;101167.00;5056716;28;45301;-78
2022/01/05 10:28:45;;;;;;;;;3.50;3.00;;;;;5.98;100.00;101170.47;5058425;28;45397;-79
2022/01/05 10:31:20;;;;;;;;;3.25;3.25;;;;;6.04;100.00;101167.47;5041621;28;45325;-77
2022/01/05 10:33:47;;;;;;;;;6.25;3.75;;;;;6.06;100.00;101167.56;5057321;28;45351;-78
2022/01/05 10:36:13;;;;;;;;;3.75;2.00;;;;;6.12;100.00;101176.56;5033392;28;45759;-78
2022/01/05 10:38:49;;;;;;;;;2.50;1.75;;;;;6.24;100.00;101173.06;5037167;28;45427;-78
2022/01/05 10:41:16;;;;;;;;;4.00;2.00;;;;;6.28;100.00;101182.78;5037433;28;45500;-78
2022/01/05 10:44:07;;;;;;;;;5.75;3.00;;;;;6.26;100.00;101172.41;5036939;28;45396;-78
2022/01/05 10:46:38;;;;;;;;;2.50;2.00;;;;;6.24;100.00;101178.22;5036966;28;45232;-79
2022/01/05 10:49:05;;;;;;;;;4.00;3.00;;;;;6.21;100.00;101193.44;5037127;28;45395;-79
2022/01/05 10:51:32;;;;;;;;;2.25;2.00;;;;;6.14;100.00;101182.72;5037234;28;45530;-78
2022/01/05 10:54:18;;;;;;;;;6.00;4.25;;;;;6.16;100.00;101185.38;5036732;28;45529;-77
2022/01/05 10:56:46;;;;;;;;;6.50;4.00;;;;;6.17;100.00;101180.38;5036886;28;45771;-78
2022/01/05 10:59:16;;;;;;;;;3.50;2.75;;;;;6.23;100.00;101187.63;5036889;28;45399;-79
2022/01/05 11:01:42;;;;;;;;;6.50;6.00;;;;;6.30;100.00;101183.78;5036890;28;45350;-80
2022/01/05 11:04:17;;;;;;;;;3.25;2.75;;;;;6.33;100.00;101178.81;5036310;28;45558;-78
2022/01/05 11:07:04;;;;;;;;;5.25;3.00;;;;;6.35;100.00;101175.59;5018530;28;45368;-79
2022/01/05 11:09:31;;;;;;;;;4.25;2.00;;;;;6.41;100.00;101172.53;5036721;28;45358;-79
2022/01/05 11:11:58;;;;;;;;;3.25;2.00;;;;;6.47;100.00;101177.22;5042666;28;45521;-79
2022/01/05 11:14:29;;;;;;;;;5.50;4.00;;;;;6.52;100.00;101188.69;5047064;28;45525;-82
2022/01/05 11:16:55;;;;;;;;;5.00;3.75;;;;;6.56;100.00;101187.22;5049282;28;45256;-82
2022/01/05 11:19:31;;;;;;;;;7.00;3.50;;;;;6.60;100.00;101191.78;5046518;28;45185;-84
2022/01/05 11:22:05;;;;;;;;;2.75;2.25;;;;;6.62;100.00;101185.94;5038022;28;45319;-88
2022/01/05 11:24:44;;;;;;;;;7.25;3.00;;;;;6.70;100.00;101181.31;5040693;28;45321;-87